SBMN/MAO METAR and TAF weather

Enter ICAO airport designator
Station Type Date Time Source
SBMN METAR 2019/11/21 03:00 UTC NOAA

SBMN 210300Z 08003KT CAVOK 27/24 Q1011


Station Type Date Time Source
SBMN Decoded METAR 2019/11/21 03:00 UTC NOAA

Manaus Aeroporto , Brazil (SBMN) 03-09S 059-59W 84M
Nov 20, 2019 - 10:00 PM EST / 2019.11.21 0300 UTC
Wind: from the E (080 degrees) at 3 MPH (3 KT):0
Visibility: greater than 7 mile(s):0
Temperature: 80 F (27 C)
Dew Point: 75 F (24 C)
Relative Humidity: 83%
Pressure (altimeter): 29.85 in. Hg (1011 hPa)
ob: SBMN 210300Z 08003KT CAVOK 27/24 Q1011
cycle: 3

Station Type Date Time Source
SBMN TAF 2019/11/21 06:36 UTC NOAA

TAF TAF SBMN 210400Z 2106/2118 08004KT 9999 FEW010 TN25/2108Z TX32/2117Z
BECMG 2114/2116 SCT020 FEW025TCU
RMK PEU

Example: see airport list